createdAt,value
2023-01-10T00:00:00.986Z,78.97
2023-01-10T00:02:32.411Z,79.00
2023-01-10T00:05:11.692Z,78.19
2023-01-10T00:07:56.541Z,77.96
2023-01-10T00:10:23.473Z,79.21
2023-01-10T00:13:09.748Z,78.82
2023-01-10T00:15:41.598Z,77.84
2023-01-10T00:18:12.144Z,77.65
2023-01-10T00:20:47.579Z,78.39
2023-01-10T00:23:14.699Z,78.94
2023-01-10T00:25:46.618Z,79.48
2023-01-10T00:28:17.687Z,81.05
2023-01-10T00:31:10.849Z,77.66
2023-01-10T00:33:37.976Z,77.74
2023-01-10T00:36:12.945Z,77.92
2023-01-10T00:38:42.720Z,78.28
2023-01-10T00:41:31.445Z,78.41
2023-01-10T00:44:03.747Z,79.73
2023-01-10T00:46:33.540Z,79.40
2023-01-10T00:49:02.801Z,78.66
2023-01-10T00:51:29.552Z,79.84
2023-01-10T00:53:56.489Z,79.67
2023-01-10T00:56:23.351Z,80.42
2023-01-10T00:58:53.253Z,80.68
2023-01-10T01:01:20.260Z,80.46
2023-01-10T01:03:52.352Z,78.99
2023-01-10T01:06:22.334Z,75.95
2023-01-10T01:08:51.023Z,71.25
2023-01-10T01:11:26.872Z,73.03
2023-01-10T01:13:56.353Z,64.86
2023-01-10T01:16:23.234Z,63.52
2023-01-10T01:18:55.851Z,62.52
2023-01-10T01:21:22.626Z,60.61
2023-01-10T01:23:53.422Z,64.88
2023-01-10T01:26:20.195Z,61.95
2023-01-10T01:28:50.526Z,67.39
2023-01-10T01:31:17.410Z,62.32
2023-01-10T01:33:44.311Z,60.34
2023-01-10T01:36:17.611Z,64.10
2023-01-10T01:38:49.289Z,57.65
2023-01-10T01:41:36.463Z,57.28
2023-01-10T01:44:10.434Z,59.84
2023-01-10T01:46:48.867Z,56.82
2023-01-10T01:49:21.969Z,59.50
2023-01-10T01:52:01.632Z,60.58
2023-01-10T01:54:41.147Z,63.10
2023-01-10T01:57:19.482Z,56.48
2023-01-10T01:59:50.091Z,57.26
2023-01-10T02:02:32.716Z,55.66
2023-01-10T02:05:02.533Z,56.92
2023-01-10T02:07:38.671Z,59.00
2023-01-10T02:10:18.884Z,63.47
2023-01-10T02:12:47.896Z,57.88
2023-01-10T02:15:18.818Z,57.42
2023-01-10T02:17:51.891Z,56.45
2023-01-10T02:20:23.473Z,55.44
2023-01-10T02:23:18.480Z,56.45
2023-01-10T02:26:14.684Z,58.18
2023-01-10T02:29:10.664Z,56.54
2023-01-10T02:32:17.158Z,55.89
2023-01-10T02:35:03.315Z,55.85
2023-01-10T02:37:48.371Z,56.23
2023-01-10T02:40:39.231Z,56.60
2023-01-10T02:43:13.749Z,57.70
2023-01-10T02:45:48.067Z,55.03
2023-01-10T02:48:18.812Z,56.49
2023-01-10T02:51:21.994Z,56.56
2023-01-10T02:54:04.097Z,61.20
2023-01-10T02:56:44.200Z,58.43
2023-01-10T02:59:38.715Z,56.87
2023-01-10T03:02:31.278Z,52.98
2023-01-10T03:05:05.581Z,53.72
2023-01-10T03:08:11.019Z,50.02
2023-01-10T03:10:45.587Z,49.01
2023-01-10T03:13:23.097Z,49.71
2023-01-10T03:15:51.529Z,49.45
2023-01-10T03:18:30.681Z,49.83
2023-01-10T03:20:59.632Z,53.13
2023-01-10T03:23:32.766Z,49.42
2023-01-10T03:26:06.666Z,48.95
2023-01-10T03:28:45.170Z,49.47
2023-01-10T03:31:18.900Z,52.09
2023-01-10T03:33:45.867Z,50.82
2023-01-10T03:36:33.503Z,55.08
2023-01-10T03:39:36.142Z,50.55
2023-01-10T03:42:16.350Z,49.93
2023-01-10T03:44:58.531Z,53.64
2023-01-10T03:47:41.480Z,56.37
2023-01-10T03:50:23.935Z,49.53
2023-01-10T03:52:53.314Z,47.89
2023-01-10T03:55:29.128Z,48.23
2023-01-10T03:57:58.327Z,49.68
2023-01-10T04:00:31.072Z,48.91
2023-01-10T04:03:03.396Z,52.31
2023-01-10T04:05:32.894Z,57.82
2023-01-10T04:07:59.737Z,53.65
2023-01-10T04:10:30.022Z,51.31
2023-01-10T04:13:05.059Z,48.96
2023-01-10T04:15:37.880Z,51.41
2023-01-10T04:18:04.755Z,50.88
2023-01-10T04:20:34.084Z,47.28
2023-01-10T04:23:03.791Z,48.39
2023-01-10T04:25:30.561Z,51.92
2023-01-10T04:28:02.771Z,47.90
2023-01-10T04:30:29.620Z,46.92
2023-01-10T04:32:59.465Z,48.54
2023-01-10T04:35:31.942Z,45.83
2023-01-10T04:38:05.001Z,46.80
2023-01-10T04:40:32.065Z,50.93
2023-01-10T04:42:58.928Z,46.23
2023-01-10T04:45:26.402Z,46.97
2023-01-10T04:47:56.328Z,47.08
2023-01-10T04:50:24.149Z,49.91
2023-01-10T04:52:51.112Z,46.73
2023-01-10T04:55:20.135Z,47.28
2023-01-10T04:57:51.898Z,48.99
2023-01-10T05:00:22.195Z,48.09
2023-01-10T05:02:49.185Z,44.13
2023-01-10T05:05:21.220Z,50.32
2023-01-10T05:07:48.030Z,46.34
2023-01-10T05:10:22.266Z,44.70
2023-01-10T05:12:52.131Z,44.39
2023-01-10T05:15:25.928Z,50.13
2023-01-10T05:18:03.566Z,43.66
2023-01-10T05:20:34.980Z,44.08
2023-01-10T05:23:04.884Z,44.48
2023-01-10T05:25:34.486Z,45.92
2023-01-10T05:28:01.259Z,46.53
2023-01-10T05:30:28.015Z,46.58
2023-01-10T05:32:57.275Z,43.73
2023-01-10T05:35:25.784Z,48.00
2023-01-10T05:37:52.950Z,43.76
2023-01-10T05:40:19.820Z,48.09
2023-01-10T05:42:51.615Z,46.41
2023-01-10T05:45:21.008Z,45.80
2023-01-10T05:47:47.863Z,44.38
2023-01-10T05:50:14.827Z,44.03
2023-01-10T05:52:41.967Z,46.01
2023-01-10T05:55:08.869Z,46.61
2023-01-10T05:57:35.695Z,46.67
2023-01-10T06:00:05.019Z,47.86
2023-01-10T06:02:39.305Z,46.32
2023-01-10T06:05:07.973Z,50.62
2023-01-10T06:07:40.808Z,43.57
2023-01-10T06:10:11.608Z,45.70
2023-01-10T06:12:50.430Z,44.42
2023-01-10T06:15:20.017Z,47.18
2023-01-10T06:17:48.075Z,47.92
2023-01-10T06:20:15.522Z,47.93
2023-01-10T06:22:46.644Z,48.93
2023-01-10T06:25:16.948Z,44.96
2023-01-10T06:27:49.955Z,48.27
2023-01-10T06:30:25.519Z,43.95
2023-01-10T06:32:52.431Z,45.04
2023-01-10T06:35:19.130Z,44.34
2023-01-10T06:37:46.086Z,45.24
2023-01-10T06:40:15.618Z,48.82
2023-01-10T06:42:42.458Z,46.64
2023-01-10T06:45:10.133Z,48.99
2023-01-10T06:47:39.422Z,44.83
2023-01-10T06:50:09.646Z,45.53
2023-01-10T06:52:42.442Z,51.07
2023-01-10T06:55:11.739Z,44.07
2023-01-10T06:57:38.749Z,45.61
2023-01-10T07:00:13.644Z,48.05
2023-01-10T07:02:42.920Z,44.78
2023-01-10T07:05:11.486Z,44.63
2023-01-10T07:15:49.627Z,48.33
2023-01-10T07:18:21.061Z,45.01
2023-01-10T07:20:47.786Z,44.87
2023-01-10T07:23:14.589Z,45.03
2023-01-10T07:25:49.651Z,46.83
2023-01-10T07:28:22.101Z,45.84
2023-01-10T07:30:53.289Z,46.00
2023-01-10T07:33:23.005Z,46.42
2023-01-10T07:35:49.831Z,45.66
2023-01-10T07:38:23.116Z,46.91
2023-01-10T07:40:51.253Z,47.29
2023-01-10T07:43:23.891Z,44.81
2023-01-10T07:45:54.790Z,46.70
2023-01-10T07:48:24.145Z,46.76
2023-01-10T07:50:55.467Z,45.00
2023-01-10T07:53:26.877Z,44.77
2023-01-10T07:55:53.662Z,46.91
2023-01-10T07:58:23.004Z,49.71
2023-01-10T08:00:53.049Z,44.76
2023-01-10T08:03:23.301Z,43.97
2023-01-10T08:05:53.029Z,46.30
2023-01-10T08:08:26.339Z,44.95
2023-01-10T08:10:55.871Z,46.78
2023-01-10T08:13:24.818Z,47.63
2023-01-10T08:15:52.601Z,43.14
2023-01-10T08:18:21.378Z,44.75
2023-01-10T08:20:53.045Z,45.71
2023-01-10T08:23:22.876Z,45.17
2023-01-10T08:25:59.431Z,44.06
2023-01-10T08:28:26.442Z,47.23
2023-01-10T08:31:01.147Z,42.09
2023-01-10T08:33:30.941Z,46.21
2023-01-10T08:35:57.873Z,41.28
2023-01-10T08:38:25.809Z,44.45
2023-01-10T08:40:56.995Z,41.20
2023-01-10T08:43:24.635Z,42.73
2023-01-10T08:45:56.460Z,41.17
2023-01-10T08:48:26.542Z,43.88
2023-01-10T08:50:53.561Z,44.87
2023-01-10T08:53:23.115Z,45.06
2023-01-10T08:55:52.771Z,42.22
2023-01-10T08:58:19.673Z,40.87
2023-01-10T09:00:49.607Z,40.52
2023-01-10T09:03:20.642Z,40.45
2023-01-10T09:05:51.360Z,40.90
2023-01-10T09:08:18.125Z,40.28
2023-01-10T09:10:45.050Z,43.87
2023-01-10T09:13:14.478Z,42.67
2023-01-10T09:15:45.903Z,42.24
2023-01-10T09:18:22.283Z,42.49
2023-01-10T09:20:51.064Z,41.49
2023-01-10T09:23:30.692Z,40.39
2023-01-10T09:26:01.542Z,40.67
2023-01-10T09:28:28.347Z,40.21
2023-01-10T09:31:01.600Z,40.35
2023-01-10T09:33:35.157Z,41.00
2023-01-10T09:36:27.607Z,42.73
2023-01-10T09:38:59.524Z,40.71
2023-01-10T09:41:55.848Z,40.03
2023-01-10T09:44:43.111Z,40.36
2023-01-10T09:53:39.412Z,40.91
2023-01-10T09:56:10.554Z,43.66
2023-01-10T09:58:51.090Z,39.18
2023-01-10T10:01:29.843Z,38.83
2023-01-10T10:04:02.889Z,40.40
2023-01-10T10:06:34.824Z,39.54
2023-01-10T10:09:04.193Z,37.95
2023-01-10T10:11:46.757Z,39.57
2023-01-10T10:14:32.998Z,37.52
2023-01-10T10:17:17.848Z,38.62
2023-01-10T10:20:09.060Z,38.79
2023-01-10T10:23:00.641Z,37.50
2023-01-10T10:25:45.903Z,39.08
2023-01-10T10:28:53.685Z,37.19
2023-01-10T10:31:47.771Z,40.87
2023-01-10T10:34:23.226Z,40.54
2023-01-10T10:37:06.365Z,39.26
2023-01-10T10:39:45.828Z,37.92
2023-01-10T10:42:16.870Z,35.89
2023-01-10T10:45:14.865Z,36.72
2023-01-10T10:47:52.806Z,36.40
2023-01-10T10:50:35.937Z,37.79
2023-01-10T10:53:11.363Z,35.92
2023-01-10T10:55:43.902Z,36.49
2023-01-10T10:58:12.437Z,36.62
2023-01-10T11:00:41.148Z,36.83
2023-01-10T11:03:42.196Z,36.14
2023-01-10T11:06:13.688Z,36.25
2023-01-10T11:08:45.851Z,37.10
2023-01-10T11:11:27.484Z,35.28
2023-01-10T11:14:00.010Z,35.26
2023-01-10T11:16:35.181Z,39.20
2023-01-10T11:19:20.612Z,37.88
2023-01-10T11:21:57.311Z,36.28
2023-01-10T11:24:28.828Z,36.05
2023-01-10T11:26:58.073Z,34.99
2023-01-10T11:29:53.505Z,40.54
2023-01-10T11:32:33.333Z,36.79
2023-01-10T11:35:07.501Z,36.69
2023-01-10T11:37:39.021Z,35.89
2023-01-10T11:40:28.377Z,36.03
2023-01-10T11:42:59.657Z,39.60
2023-01-10T11:45:36.418Z,35.99
2023-01-10T11:48:19.397Z,36.93
2023-01-10T11:50:56.579Z,39.17
2023-01-10T11:53:50.182Z,36.32
2023-01-10T11:56:26.203Z,33.87
2023-01-10T11:58:54.246Z,33.91
2023-01-10T12:01:43.599Z,32.85
2023-01-10T12:04:21.220Z,34.76
2023-01-10T12:06:55.942Z,33.30
2023-01-10T12:09:33.342Z,35.37
2023-01-10T12:12:08.089Z,34.70
2023-01-10T12:14:36.227Z,35.55
2023-01-10T12:17:06.711Z,35.30
2023-01-10T12:19:33.527Z,34.99
2023-01-10T12:22:06.338Z,35.67
2023-01-10T12:24:44.373Z,35.95
2023-01-10T12:27:17.516Z,33.03
2023-01-10T12:30:15.003Z,36.61
2023-01-10T12:32:46.880Z,34.56
2023-01-10T12:35:43.552Z,34.06
2023-01-10T12:42:12.553Z,32.87
2023-01-10T12:44:49.042Z,32.90
2023-01-10T12:47:49.871Z,32.33
2023-01-10T12:50:21.531Z,32.03
2023-01-10T12:53:05.620Z,32.67
2023-01-10T12:55:47.565Z,34.58
2023-01-10T12:58:22.095Z,34.92
2023-01-10T13:00:58.225Z,32.92
2023-01-10T13:03:33.306Z,31.75
2023-01-10T13:06:01.567Z,37.43
2023-01-10T13:08:34.741Z,32.55
2023-01-10T13:11:03.151Z,31.58
2023-01-10T13:13:40.854Z,34.48
2023-01-10T13:16:51.853Z,34.46
2023-01-10T13:19:28.937Z,34.29
2023-01-10T13:22:20.572Z,32.18
2023-01-10T13:24:59.943Z,32.57
2023-01-10T13:27:31.654Z,32.67
2023-01-10T13:29:58.542Z,31.94
2023-01-10T13:32:35.418Z,31.84
2023-01-10T13:35:19.124Z,35.27
2023-01-10T13:37:57.128Z,32.45
2023-01-10T13:40:34.389Z,34.69
2023-01-10T13:43:35.237Z,36.07
2023-01-10T13:46:21.704Z,32.13
2023-01-10T13:49:16.201Z,33.87
2023-01-10T13:52:32.947Z,37.92
2023-01-10T13:55:28.861Z,39.36
2023-01-10T13:57:56.853Z,33.66
2023-01-10T14:01:05.217Z,32.97
2023-01-10T14:04:01.485Z,32.18
2023-01-10T14:06:33.301Z,32.22
2023-01-10T14:09:24.742Z,36.18
2023-01-10T14:12:13.142Z,38.38
2023-01-10T14:14:41.796Z,38.00
2023-01-10T14:17:26.806Z,33.45
2023-01-10T14:20:12.119Z,33.46
2023-01-10T14:23:17.410Z,36.15
2023-01-10T14:25:53.739Z,34.36
2023-01-10T14:28:30.334Z,33.32
2023-01-10T14:31:06.394Z,32.90
2023-01-10T14:33:34.496Z,38.91
2023-01-10T14:36:09.974Z,37.30
2023-01-10T14:38:41.142Z,33.55
2023-01-10T14:41:13.275Z,36.88
2023-01-10T14:44:27.783Z,37.41
2023-01-10T14:46:57.120Z,33.41
2023-01-10T14:49:27.822Z,34.27
2023-01-10T14:52:15.481Z,34.43
2023-01-10T14:54:42.466Z,34.89
2023-01-10T14:57:21.501Z,39.67
2023-01-10T14:59:55.716Z,39.40
2023-01-10T15:02:27.471Z,35.45
2023-01-10T15:05:21.542Z,35.65
2023-01-10T15:07:51.467Z,33.85
2023-01-10T15:10:25.995Z,35.83
2023-01-10T15:12:56.942Z,36.24
2023-01-10T15:15:36.866Z,38.40
2023-01-10T15:18:13.011Z,35.70
2023-01-10T15:20:40.179Z,35.13
2023-01-10T15:23:15.834Z,34.45
2023-01-10T15:25:45.353Z,36.18
2023-01-10T15:28:17.266Z,34.48
2023-01-10T15:30:47.542Z,36.73
2023-01-10T15:33:19.851Z,35.21
2023-01-10T15:35:48.602Z,35.08
2023-01-10T15:38:18.378Z,37.82
2023-01-10T15:40:50.127Z,36.20
2023-01-10T15:43:25.007Z,39.19
2023-01-10T15:46:00.680Z,38.69
2023-01-10T15:48:43.973Z,39.35
2023-01-10T15:51:42.802Z,40.58
2023-01-10T15:54:24.521Z,35.57
2023-01-10T15:57:40.227Z,38.78
2023-01-10T16:00:18.174Z,34.47
2023-01-10T16:02:48.050Z,35.88
2023-01-10T16:05:22.512Z,39.26
2023-01-10T16:07:49.468Z,35.35
2023-01-10T16:10:26.937Z,41.56
2023-01-10T16:13:19.732Z,41.72
2023-01-10T16:15:46.595Z,38.07
2023-01-10T16:18:13.326Z,42.97
2023-01-10T16:20:46.119Z,40.80
2023-01-10T16:23:16.777Z,39.13
2023-01-10T16:26:06.137Z,43.82
2023-01-10T16:28:36.437Z,42.20
2023-01-10T16:31:12.456Z,42.36
2023-01-10T16:33:39.240Z,40.47
2023-01-10T16:36:14.907Z,42.19
2023-01-10T16:38:48.087Z,37.96
2023-01-10T16:41:36.181Z,40.67
2023-01-10T16:44:03.223Z,40.50
2023-01-10T16:46:30.479Z,43.48
2023-01-10T16:48:57.436Z,45.06
2023-01-10T16:51:30.482Z,42.42
2023-01-10T16:53:57.313Z,43.36
2023-01-10T16:56:26.919Z,44.16
2023-01-10T16:58:58.170Z,41.88
2023-01-10T17:01:43.668Z,41.64
2023-01-10T17:04:21.217Z,40.61
2023-01-10T17:07:05.174Z,46.05
2023-01-10T17:09:35.959Z,46.40
2023-01-10T17:12:15.175Z,42.24
2023-01-10T17:14:45.587Z,46.38
2023-01-10T17:17:15.416Z,48.48
2023-01-10T17:19:43.054Z,42.54
2023-01-10T17:22:17.233Z,43.93
2023-01-10T17:24:47.385Z,46.61
2023-01-10T17:27:14.339Z,43.72
2023-01-10T17:29:41.282Z,42.49
2023-01-10T17:32:15.197Z,43.45
2023-01-10T17:34:45.340Z,46.88
2023-01-10T17:37:14.664Z,43.48
2023-01-10T17:39:41.731Z,43.59
2023-01-10T17:42:14.876Z,39.80
2023-01-10T17:44:41.745Z,39.88
2023-01-10T17:47:14.609Z,41.05
2023-01-10T17:49:44.328Z,43.01
2023-01-10T17:52:11.268Z,41.77
2023-01-10T17:54:45.539Z,44.28
2023-01-10T17:57:36.281Z,39.52
2023-01-10T18:00:12.394Z,38.65
2023-01-10T18:02:39.545Z,42.41
2023-01-10T18:05:12.070Z,41.54
2023-01-10T18:07:38.791Z,43.48
2023-01-10T18:10:09.084Z,38.94
2023-01-10T18:12:36.719Z,41.45
2023-01-10T18:15:08.633Z,39.28
2023-01-10T18:17:35.796Z,40.75
2023-01-10T18:20:06.326Z,40.47
2023-01-10T18:22:58.927Z,35.50
2023-01-10T18:25:31.924Z,40.60
2023-01-10T18:28:04.124Z,44.44
2023-01-10T18:30:39.999Z,43.88
2023-01-10T18:33:13.768Z,40.12
2023-01-10T18:35:44.965Z,41.83
2023-01-10T18:38:15.145Z,43.99
2023-01-10T18:40:45.387Z,43.42
2023-01-10T18:43:18.214Z,46.11
2023-01-10T18:45:51.106Z,43.22
2023-01-10T18:48:26.623Z,38.73
2023-01-10T18:50:57.718Z,40.17
2023-01-10T18:53:28.293Z,39.58
2023-01-10T18:56:01.034Z,36.47
2023-01-10T18:58:31.579Z,41.85
2023-01-10T19:01:06.007Z,43.40
2023-01-10T19:03:38.085Z,36.91
2023-01-10T19:06:16.997Z,41.49
2023-01-10T19:08:44.999Z,41.44
2023-01-10T19:11:20.931Z,43.48
2023-01-10T19:13:55.434Z,44.44
2023-01-10T19:16:25.229Z,36.96
2023-01-10T19:19:09.534Z,40.24
2023-01-10T19:21:40.544Z,37.47
2023-01-10T19:24:36.233Z,45.14
2023-01-10T19:27:04.970Z,35.45
2023-01-10T19:29:41.811Z,40.05
2023-01-10T19:32:11.833Z,43.02
2023-01-10T19:34:46.368Z,41.75
2023-01-10T19:37:19.457Z,44.85
2023-01-10T19:39:47.644Z,45.44
2023-01-10T19:42:15.713Z,44.22
2023-01-10T19:44:42.907Z,38.65
2023-01-10T19:47:11.766Z,42.47
2023-01-10T19:49:41.901Z,41.94
2023-01-10T19:52:11.370Z,40.59
2023-01-10T19:54:48.759Z,42.57
2023-01-10T19:57:19.544Z,43.82
2023-01-10T19:59:52.117Z,41.18
2023-01-10T20:02:23.559Z,41.22
2023-01-10T20:04:53.335Z,43.41
2023-01-10T20:07:22.548Z,42.58
2023-01-10T20:09:51.043Z,44.24
2023-01-10T20:12:22.649Z,42.74
2023-01-10T20:14:55.854Z,39.76
2023-01-10T20:17:25.918Z,42.62
2023-01-10T20:19:57.180Z,41.67
2023-01-10T20:22:24.776Z,39.58
2023-01-10T20:24:54.163Z,42.71
2023-01-10T20:27:24.206Z,44.08
2023-01-10T20:29:52.169Z,38.49
2023-01-10T20:32:19.947Z,41.45
2023-01-10T20:34:49.888Z,40.68
2023-01-10T20:37:25.319Z,40.91
2023-01-10T20:39:52.268Z,39.02
2023-01-10T20:42:44.416Z,42.55
2023-01-10T20:45:16.409Z,39.45
2023-01-10T20:47:53.802Z,38.46
2023-01-10T20:50:21.887Z,37.30
2023-01-10T20:53:02.799Z,43.27
2023-01-10T20:55:35.605Z,40.43
2023-01-10T20:58:08.802Z,41.10
2023-01-10T21:00:43.700Z,39.47
2023-01-10T21:03:11.157Z,45.71
2023-01-10T21:05:43.120Z,38.02
2023-01-10T21:08:12.312Z,42.72
2023-01-10T21:10:46.043Z,38.22
2023-01-10T21:13:16.634Z,42.28
2023-01-10T21:15:48.067Z,39.95
2023-01-10T21:18:26.487Z,38.97
2023-01-10T21:21:07.062Z,39.30
2023-01-10T21:23:34.915Z,39.31
2023-01-10T21:26:06.608Z,37.93
2023-01-10T21:28:35.507Z,41.48
2023-01-10T21:31:12.635Z,42.73
2023-01-10T21:33:42.759Z,45.32
2023-01-10T21:36:15.727Z,46.77
2023-01-10T21:38:50.035Z,43.69
2023-01-10T21:41:39.357Z,46.64
2023-01-10T21:44:08.704Z,48.46
2023-01-10T21:46:36.467Z,45.81
2023-01-10T21:49:07.291Z,41.43
2023-01-10T21:51:34.452Z,47.41
2023-01-10T21:54:04.248Z,45.20
2023-01-10T21:56:34.213Z,41.80
2023-01-10T21:59:04.030Z,39.81
2023-01-10T22:01:31.080Z,41.61
2023-01-10T22:04:03.789Z,43.84
2023-01-10T22:06:33.648Z,39.28
2023-01-10T22:09:00.697Z,44.23
2023-01-10T22:11:30.658Z,47.47
2023-01-10T22:14:00.829Z,44.57
2023-01-10T22:16:27.715Z,44.62
2023-01-10T22:18:58.404Z,47.65
2023-01-10T22:21:30.789Z,45.46
2023-01-10T22:23:59.730Z,38.83
2023-01-10T22:26:32.059Z,41.73
2023-01-10T22:29:01.823Z,42.44
2023-01-10T22:31:30.869Z,43.65
2023-01-10T22:34:06.430Z,39.02
2023-01-10T22:36:38.876Z,40.91
2023-01-10T22:39:09.155Z,42.45
2023-01-10T22:41:39.284Z,41.90
2023-01-10T22:44:06.560Z,44.92
2023-01-10T22:46:34.712Z,45.26
2023-01-10T22:49:01.733Z,45.01
2023-01-10T22:51:29.018Z,41.18
2023-01-10T22:54:00.580Z,41.38
2023-01-10T22:56:27.632Z,45.71
2023-01-10T22:58:58.194Z,40.98
2023-01-10T23:01:30.507Z,45.61
2023-01-10T23:03:59.597Z,46.03
2023-01-10T23:06:28.887Z,47.35
2023-01-10T23:09:00.137Z,39.53
2023-01-10T23:11:30.665Z,40.44
2023-01-10T23:13:57.823Z,41.90
2023-01-10T23:16:35.148Z,42.16
2023-01-10T23:19:02.122Z,41.45
2023-01-10T23:21:31.652Z,43.14
2023-01-10T23:23:58.649Z,46.95
2023-01-10T23:26:25.489Z,43.60
2023-01-10T23:29:00.466Z,44.85
2023-01-10T23:31:29.864Z,43.50
2023-01-10T23:33:57.157Z,39.84
2023-01-10T23:36:38.264Z,40.00
2023-01-10T23:39:06.123Z,46.90
2023-01-10T23:41:34.144Z,41.65
2023-01-10T23:44:02.328Z,41.19
2023-01-10T23:46:29.680Z,45.78
2023-01-10T23:49:10.863Z,45.90
2023-01-10T23:51:38.180Z,45.50
2023-01-10T23:54:05.659Z,48.42
2023-01-10T23:56:33.001Z,47.11
2023-01-10T23:59:06.943Z,45.06
